Accueil
METAR-TAF:

METAR-TAF

Aéroports :

Hagåtña, Guam, États-Unis

Aéroport international Antonio-B.-Won-Pat de Guam

latitude: 13-29N, longitude: 144-48E, altitude: 91 m

Observation

Le bulletin a été fait il y a 1 heure et 4 minutes, à 15:54 UTC
Vent 4 kt de sud
Température 27°C
Humidité 94%
Pression 1011 hPa
Visibilité: 16.1 km
Ciel clair

METAR: PGUM 251554Z 17004KT 10SM CLR 27/26 A2984 RMK AO2 SLP098 T02670256

Heure: 02:58 (16:58 UTC)

Prévision

Le bulletin a été fait il y a 5 heures et 26 minutes, à 11:32 UTC
Prévision valable du 25 à 12 UTC au 26 à 18 UTC
Vent 9 kt de sud
Visibilité: 10 km
Nuages épars à une hauteur de 1800 ft
Nuages épars à une hauteur de 4000 ft
averses à proximité

TAF: PGUM 251132Z 2512/2618 17009KT P6SM VCSH SCT018 SCT040

Observations et prévisions météorologiques de plus de 4000 aéroports (messages METAR et TAF).

Les stations disponibles sont représentées par des disques jaunes et rouges sur la carte.

Passer la souris dessus pour voir le nom de la station.

Cliquer dessus pour voir les observations et prévisions météorologiques.

Pour changer de carte: cliquez sur les boutons verts avec une croix noire pour zoomer, sur le bouton vert avec un tiret pour effectuer un zoom arrière, ou sur les flèches vertes pour les cartes adjacentes.


METAR-TAF: